sensor_id;sensor_type;location;lat;lon;timestamp;P1;durP1;ratioP1;P2;durP2;ratioP2
70806;SDS011;58882;52.170;5.386;2024-01-10T00:01:56;5.47;;;2.25;;
70806;SDS011;58882;52.170;5.386;2024-01-10T00:04:23;6.90;;;2.30;;
70806;SDS011;58882;52.170;5.386;2024-01-10T00:06:50;5.95;;;2.55;;
70806;SDS011;58882;52.170;5.386;2024-01-10T00:09:17;6.57;;;2.50;;
70806;SDS011;58882;52.170;5.386;2024-01-10T00:11:44;6.63;;;2.30;;
70806;SDS011;58882;52.170;5.386;2024-01-10T00:14:11;6.22;;;2.42;;
70806;SDS011;58882;52.170;5.386;2024-01-10T00:16:38;6.00;;;2.13;;
70806;SDS011;58882;52.170;5.386;2024-01-10T00:19:05;6.03;;;2.50;;
70806;SDS011;58882;52.170;5.386;2024-01-10T00:21:32;6.15;;;2.55;;
70806;SDS011;58882;52.170;5.386;2024-01-10T00:23:58;6.22;;;2.45;;
70806;SDS011;58882;52.170;5.386;2024-01-10T00:26:25;5.13;;;2.05;;
70806;SDS011;58882;52.170;5.386;2024-01-10T00:28:52;5.45;;;2.22;;
70806;SDS011;58882;52.170;5.386;2024-01-10T00:31:26;6.05;;;2.30;;
70806;SDS011;58882;52.170;5.386;2024-01-10T00:33:53;5.93;;;2.42;;
70806;SDS011;58882;52.170;5.386;2024-01-10T00:36:20;5.65;;;2.05;;
70806;SDS011;58882;52.170;5.386;2024-01-10T00:38:47;7.68;;;2.50;;
70806;SDS011;58882;52.170;5.386;2024-01-10T00:41:14;7.00;;;2.47;;
70806;SDS011;58882;52.170;5.386;2024-01-10T00:43:41;6.05;;;2.13;;
70806;SDS011;58882;52.170;5.386;2024-01-10T00:46:08;6.95;;;2.42;;
70806;SDS011;58882;52.170;5.386;2024-01-10T00:48:34;7.57;;;2.50;;
70806;SDS011;58882;52.170;5.386;2024-01-10T00:51:01;7.45;;;3.10;;
70806;SDS011;58882;52.170;5.386;2024-01-10T00:53:28;6.43;;;2.40;;
70806;SDS011;58882;52.170;5.386;2024-01-10T00:55:55;7.53;;;2.50;;
70806;SDS011;58882;52.170;5.386;2024-01-10T00:58:22;7.25;;;2.60;;
70806;SDS011;58882;52.170;5.386;2024-01-10T01:00:48;5.95;;;2.47;;
70806;SDS011;58882;52.170;5.386;2024-01-10T01:03:15;6.55;;;2.72;;
70806;SDS011;58882;52.170;5.386;2024-01-10T01:05:42;5.35;;;2.35;;
70806;SDS011;58882;52.170;5.386;2024-01-10T01:08:09;6.70;;;2.72;;
70806;SDS011;58882;52.170;5.386;2024-01-10T01:10:36;6.30;;;2.47;;
70806;SDS011;58882;52.170;5.386;2024-01-10T01:13:03;6.75;;;2.70;;
70806;SDS011;58882;52.170;5.386;2024-01-10T01:15:30;5.50;;;2.42;;
70806;SDS011;58882;52.170;5.386;2024-01-10T01:17:57;6.85;;;2.50;;
70806;SDS011;58882;52.170;5.386;2024-01-10T01:20:24;6.40;;;2.60;;
70806;SDS011;58882;52.170;5.386;2024-01-10T01:22:54;6.50;;;2.53;;
70806;SDS011;58882;52.170;5.386;2024-01-10T01:25:21;6.93;;;2.78;;
70806;SDS011;58882;52.170;5.386;2024-01-10T01:27:48;7.47;;;2.63;;
70806;SDS011;58882;52.170;5.386;2024-01-10T01:30:15;5.15;;;2.20;;
70806;SDS011;58882;52.170;5.386;2024-01-10T01:32:42;7.28;;;2.78;;
70806;SDS011;58882;52.170;5.386;2024-01-10T01:35:09;6.60;;;2.47;;
70806;SDS011;58882;52.170;5.386;2024-01-10T01:37:36;5.50;;;2.28;;
70806;SDS011;58882;52.170;5.386;2024-01-10T01:40:03;6.43;;;2.30;;
70806;SDS011;58882;52.170;5.386;2024-01-10T01:42:30;7.35;;;2.50;;
70806;SDS011;58882;52.170;5.386;2024-01-10T01:44:58;6.78;;;2.63;;
70806;SDS011;58882;52.170;5.386;2024-01-10T01:47:25;8.82;;;2.63;;
70806;SDS011;58882;52.170;5.386;2024-01-10T01:49:53;6.00;;;2.53;;
70806;SDS011;58882;52.170;5.386;2024-01-10T01:52:20;6.38;;;2.60;;
70806;SDS011;58882;52.170;5.386;2024-01-10T01:54:47;6.60;;;2.72;;
70806;SDS011;58882;52.170;5.386;2024-01-10T01:57:14;6.18;;;2.55;;
70806;SDS011;58882;52.170;5.386;2024-01-10T01:59:41;6.68;;;2.70;;
70806;SDS011;58882;52.170;5.386;2024-01-10T02:02:08;6.03;;;2.40;;
70806;SDS011;58882;52.170;5.386;2024-01-10T02:04:36;6.38;;;2.55;;
70806;SDS011;58882;52.170;5.386;2024-01-10T02:07:03;5.75;;;2.58;;
70806;SDS011;58882;52.170;5.386;2024-01-10T02:09:30;7.35;;;2.60;;
70806;SDS011;58882;52.170;5.386;2024-01-10T02:11:57;6.63;;;2.53;;
70806;SDS011;58882;52.170;5.386;2024-01-10T02:14:24;6.85;;;2.53;;
70806;SDS011;58882;52.170;5.386;2024-01-10T02:16:50;11.63;;;2.65;;
70806;SDS011;58882;52.170;5.386;2024-01-10T02:19:18;6.40;;;2.47;;
70806;SDS011;58882;52.170;5.386;2024-01-10T02:21:49;6.03;;;2.72;;
70806;SDS011;58882;52.170;5.386;2024-01-10T02:24:16;7.60;;;2.75;;
70806;SDS011;58882;52.170;5.386;2024-01-10T02:26:43;8.35;;;2.65;;
70806;SDS011;58882;52.170;5.386;2024-01-10T02:29:10;6.85;;;2.70;;
70806;SDS011;58882;52.170;5.386;2024-01-10T02:31:38;6.88;;;2.90;;
70806;SDS011;58882;52.170;5.386;2024-01-10T02:34:04;6.25;;;2.50;;
70806;SDS011;58882;52.170;5.386;2024-01-10T02:36:31;5.93;;;2.67;;
70806;SDS011;58882;52.170;5.386;2024-01-10T02:38:58;7.78;;;2.88;;
70806;SDS011;58882;52.170;5.386;2024-01-10T02:41:25;6.97;;;2.60;;
70806;SDS011;58882;52.170;5.386;2024-01-10T02:43:54;10.10;;;2.70;;
70806;SDS011;58882;52.170;5.386;2024-01-10T02:46:25;7.03;;;2.72;;
70806;SDS011;58882;52.170;5.386;2024-01-10T02:48:54;7.45;;;3.03;;
70806;SDS011;58882;52.170;5.386;2024-01-10T02:51:26;7.85;;;2.80;;
70806;SDS011;58882;52.170;5.386;2024-01-10T02:53:53;8.85;;;2.80;;
70806;SDS011;58882;52.170;5.386;2024-01-10T02:56:20;9.02;;;3.22;;
70806;SDS011;58882;52.170;5.386;2024-01-10T02:58:47;6.13;;;2.70;;
70806;SDS011;58882;52.170;5.386;2024-01-10T03:01:14;6.93;;;2.90;;
70806;SDS011;58882;52.170;5.386;2024-01-10T03:03:41;8.65;;;2.83;;
70806;SDS011;58882;52.170;5.386;2024-01-10T03:06:08;8.30;;;2.78;;
70806;SDS011;58882;52.170;5.386;2024-01-10T03:08:35;8.07;;;2.72;;
70806;SDS011;58882;52.170;5.386;2024-01-10T03:11:02;7.95;;;2.70;;
70806;SDS011;58882;52.170;5.386;2024-01-10T03:13:29;6.68;;;2.78;;
70806;SDS011;58882;52.170;5.386;2024-01-10T03:15:56;8.80;;;3.15;;
70806;SDS011;58882;52.170;5.386;2024-01-10T03:18:23;6.50;;;2.67;;
70806;SDS011;58882;52.170;5.386;2024-01-10T03:20:50;8.25;;;2.65;;
70806;SDS011;58882;52.170;5.386;2024-01-10T03:23:17;8.15;;;2.70;;
70806;SDS011;58882;52.170;5.386;2024-01-10T03:25:44;9.20;;;3.03;;
70806;SDS011;58882;52.170;5.386;2024-01-10T03:28:11;7.20;;;2.90;;
70806;SDS011;58882;52.170;5.386;2024-01-10T03:30:42;7.70;;;2.90;;
70806;SDS011;58882;52.170;5.386;2024-01-10T03:33:09;8.55;;;2.70;;
70806;SDS011;58882;52.170;5.386;2024-01-10T03:35:36;7.72;;;2.90;;
70806;SDS011;58882;52.170;5.386;2024-01-10T03:38:03;6.28;;;2.65;;
70806;SDS011;58882;52.170;5.386;2024-01-10T03:40:30;9.20;;;2.85;;
70806;SDS011;58882;52.170;5.386;2024-01-10T03:42:57;7.82;;;3.10;;
70806;SDS011;58882;52.170;5.386;2024-01-10T03:45:24;7.38;;;2.90;;
70806;SDS011;58882;52.170;5.386;2024-01-10T03:47:51;7.03;;;2.80;;
70806;SDS011;58882;52.170;5.386;2024-01-10T03:50:18;7.53;;;3.05;;
70806;SDS011;58882;52.170;5.386;2024-01-10T03:52:46;8.30;;;2.80;;
70806;SDS011;58882;52.170;5.386;2024-01-10T03:55:13;6.90;;;2.92;;
70806;SDS011;58882;52.170;5.386;2024-01-10T03:57:41;7.97;;;2.95;;
70806;SDS011;58882;52.170;5.386;2024-01-10T04:00:09;6.88;;;2.88;;
70806;SDS011;58882;52.170;5.386;2024-01-10T04:02:36;10.30;;;2.85;;
70806;SDS011;58882;52.170;5.386;2024-01-10T04:05:07;7.85;;;2.97;;
70806;SDS011;58882;52.170;5.386;2024-01-10T04:07:36;7.55;;;2.72;;
70806;SDS011;58882;52.170;5.386;2024-01-10T04:10:03;7.68;;;2.90;;
70806;SDS011;58882;52.170;5.386;2024-01-10T04:12:33;7.45;;;3.20;;
70806;SDS011;58882;52.170;5.386;2024-01-10T04:14:59;8.77;;;2.75;;
70806;SDS011;58882;52.170;5.386;2024-01-10T04:17:26;8.50;;;2.70;;
70806;SDS011;58882;52.170;5.386;2024-01-10T04:19:53;7.82;;;3.08;;
70806;SDS011;58882;52.170;5.386;2024-01-10T04:22:20;7.45;;;3.00;;
70806;SDS011;58882;52.170;5.386;2024-01-10T04:24:47;6.80;;;2.72;;
70806;SDS011;58882;52.170;5.386;2024-01-10T04:27:13;7.57;;;2.83;;
70806;SDS011;58882;52.170;5.386;2024-01-10T04:29:40;7.82;;;2.90;;
70806;SDS011;58882;52.170;5.386;2024-01-10T04:32:07;8.05;;;3.10;;
70806;SDS011;58882;52.170;5.386;2024-01-10T04:34:34;6.93;;;3.00;;
70806;SDS011;58882;52.170;5.386;2024-01-10T04:37:01;10.23;;;2.70;;
70806;SDS011;58882;52.170;5.386;2024-01-10T04:39:28;8.82;;;2.63;;
70806;SDS011;58882;52.170;5.386;2024-01-10T04:41:55;10.18;;;2.88;;
70806;SDS011;58882;52.170;5.386;2024-01-10T04:44:22;8.88;;;2.88;;
70806;SDS011;58882;52.170;5.386;2024-01-10T04:46:49;8.02;;;3.13;;
70806;SDS011;58882;52.170;5.386;2024-01-10T04:49:16;6.32;;;2.88;;
70806;SDS011;58882;52.170;5.386;2024-01-10T04:51:44;6.65;;;2.90;;
70806;SDS011;58882;52.170;5.386;2024-01-10T04:54:11;7.18;;;3.00;;
70806;SDS011;58882;52.170;5.386;2024-01-10T04:56:38;6.50;;;2.58;;
70806;SDS011;58882;52.170;5.386;2024-01-10T04:59:05;8.55;;;3.10;;
70806;SDS011;58882;52.170;5.386;2024-01-10T05:01:32;7.47;;;2.78;;
70806;SDS011;58882;52.170;5.386;2024-01-10T05:03:59;8.43;;;3.20;;
70806;SDS011;58882;52.170;5.386;2024-01-10T05:06:26;8.20;;;3.03;;
70806;SDS011;58882;52.170;5.386;2024-01-10T05:08:53;7.47;;;2.80;;
70806;SDS011;58882;52.170;5.386;2024-01-10T05:11:24;7.85;;;2.88;;
70806;SDS011;58882;52.170;5.386;2024-01-10T05:13:55;7.03;;;3.15;;
70806;SDS011;58882;52.170;5.386;2024-01-10T05:16:21;7.10;;;2.95;;
70806;SDS011;58882;52.170;5.386;2024-01-10T05:18:48;8.98;;;3.00;;
70806;SDS011;58882;52.170;5.386;2024-01-10T05:21:15;8.10;;;3.22;;
70806;SDS011;58882;52.170;5.386;2024-01-10T05:23:43;7.22;;;3.00;;
70806;SDS011;58882;52.170;5.386;2024-01-10T05:26:09;7.82;;;2.88;;
70806;SDS011;58882;52.170;5.386;2024-01-10T05:28:36;7.97;;;3.03;;
70806;SDS011;58882;52.170;5.386;2024-01-10T05:31:03;8.00;;;2.72;;
70806;SDS011;58882;52.170;5.386;2024-01-10T05:33:30;7.03;;;3.08;;
70806;SDS011;58882;52.170;5.386;2024-01-10T05:35:58;7.03;;;2.80;;
70806;SDS011;58882;52.170;5.386;2024-01-10T05:38:25;7.80;;;2.60;;
70806;SDS011;58882;52.170;5.386;2024-01-10T05:40:52;6.97;;;3.10;;
70806;SDS011;58882;52.170;5.386;2024-01-10T05:43:19;8.95;;;3.00;;
70806;SDS011;58882;52.170;5.386;2024-01-10T05:45:46;8.18;;;2.95;;
70806;SDS011;58882;52.170;5.386;2024-01-10T05:48:12;7.82;;;2.92;;
70806;SDS011;58882;52.170;5.386;2024-01-10T05:50:39;7.75;;;3.10;;
70806;SDS011;58882;52.170;5.386;2024-01-10T05:53:06;8.75;;;3.10;;
70806;SDS011;58882;52.170;5.386;2024-01-10T05:55:35;7.07;;;2.97;;
70806;SDS011;58882;52.170;5.386;2024-01-10T05:58:03;7.35;;;3.08;;
70806;SDS011;58882;52.170;5.386;2024-01-10T06:00:30;8.00;;;3.03;;
70806;SDS011;58882;52.170;5.386;2024-01-10T06:02:57;7.28;;;2.95;;
70806;SDS011;58882;52.170;5.386;2024-01-10T06:05:24;7.13;;;3.30;;
70806;SDS011;58882;52.170;5.386;2024-01-10T06:07:54;8.50;;;3.47;;
70806;SDS011;58882;52.170;5.386;2024-01-10T06:10:20;8.35;;;3.20;;
70806;SDS011;58882;52.170;5.386;2024-01-10T06:12:47;8.02;;;3.10;;
70806;SDS011;58882;52.170;5.386;2024-01-10T06:15:15;8.73;;;3.13;;
70806;SDS011;58882;52.170;5.386;2024-01-10T06:17:42;11.20;;;3.33;;
70806;SDS011;58882;52.170;5.386;2024-01-10T06:20:09;8.50;;;3.17;;
70806;SDS011;58882;52.170;5.386;2024-01-10T06:22:36;7.43;;;3.13;;
70806;SDS011;58882;52.170;5.386;2024-01-10T06:25:03;8.10;;;3.05;;
70806;SDS011;58882;52.170;5.386;2024-01-10T06:27:30;8.82;;;3.20;;
70806;SDS011;58882;52.170;5.386;2024-01-10T06:29:57;7.57;;;3.13;;
70806;SDS011;58882;52.170;5.386;2024-01-10T06:32:24;8.77;;;3.42;;
70806;SDS011;58882;52.170;5.386;2024-01-10T06:34:52;8.57;;;3.30;;
70806;SDS011;58882;52.170;5.386;2024-01-10T06:37:19;9.23;;;3.30;;
70806;SDS011;58882;52.170;5.386;2024-01-10T06:39:46;11.10;;;3.70;;
70806;SDS011;58882;52.170;5.386;2024-01-10T06:42:13;8.88;;;3.42;;
70806;SDS011;58882;52.170;5.386;2024-01-10T06:44:40;8.10;;;3.33;;
70806;SDS011;58882;52.170;5.386;2024-01-10T06:47:06;8.35;;;3.25;;
70806;SDS011;58882;52.170;5.386;2024-01-10T06:49:34;9.48;;;3.50;;
70806;SDS011;58882;52.170;5.386;2024-01-10T06:52:01;8.65;;;3.33;;
70806;SDS011;58882;52.170;5.386;2024-01-10T06:54:28;8.57;;;3.53;;
70806;SDS011;58882;52.170;5.386;2024-01-10T06:56:55;8.85;;;3.67;;
70806;SDS011;58882;52.170;5.386;2024-01-10T06:59:22;7.32;;;3.20;;
70806;SDS011;58882;52.170;5.386;2024-01-10T07:01:52;9.02;;;3.40;;
70806;SDS011;58882;52.170;5.386;2024-01-10T07:04:19;10.30;;;3.60;;
70806;SDS011;58882;52.170;5.386;2024-01-10T07:06:50;10.00;;;3.40;;
70806;SDS011;58882;52.170;5.386;2024-01-10T07:09:17;9.55;;;3.60;;
70806;SDS011;58882;52.170;5.386;2024-01-10T07:11:49;9.07;;;3.30;;
70806;SDS011;58882;52.170;5.386;2024-01-10T07:14:16;7.88;;;3.40;;
70806;SDS011;58882;52.170;5.386;2024-01-10T07:16:43;6.75;;;3.00;;
70806;SDS011;58882;52.170;5.386;2024-01-10T07:19:12;8.52;;;3.10;;
70806;SDS011;58882;52.170;5.386;2024-01-10T07:21:40;9.93;;;3.42;;
70806;SDS011;58882;52.170;5.386;2024-01-10T07:24:08;8.85;;;3.50;;
70806;SDS011;58882;52.170;5.386;2024-01-10T07:26:36;8.90;;;3.63;;
70806;SDS011;58882;52.170;5.386;2024-01-10T07:29:04;9.88;;;3.95;;
70806;SDS011;58882;52.170;5.386;2024-01-10T07:31:35;8.65;;;3.35;;
70806;SDS011;58882;52.170;5.386;2024-01-10T07:34:02;9.32;;;3.50;;
70806;SDS011;58882;52.170;5.386;2024-01-10T07:36:32;8.27;;;3.42;;
70806;SDS011;58882;52.170;5.386;2024-01-10T07:39:00;7.97;;;3.40;;
70806;SDS011;58882;52.170;5.386;2024-01-10T07:41:30;9.60;;;3.60;;
70806;SDS011;58882;52.170;5.386;2024-01-10T07:43:57;8.32;;;3.47;;
70806;SDS011;58882;52.170;5.386;2024-01-10T07:46:23;8.88;;;3.47;;
70806;SDS011;58882;52.170;5.386;2024-01-10T07:48:50;8.80;;;3.60;;
70806;SDS011;58882;52.170;5.386;2024-01-10T07:51:17;9.38;;;3.65;;
70806;SDS011;58882;52.170;5.386;2024-01-10T07:53:44;7.85;;;3.40;;
70806;SDS011;58882;52.170;5.386;2024-01-10T07:56:11;8.88;;;3.63;;
70806;SDS011;58882;52.170;5.386;2024-01-10T07:58:40;9.45;;;3.70;;
70806;SDS011;58882;52.170;5.386;2024-01-10T08:01:07;9.57;;;3.72;;
70806;SDS011;58882;52.170;5.386;2024-01-10T08:03:37;8.82;;;3.60;;
70806;SDS011;58882;52.170;5.386;2024-01-10T08:06:04;9.60;;;4.10;;
70806;SDS011;58882;52.170;5.386;2024-01-10T08:08:45;9.25;;;3.63;;
70806;SDS011;58882;52.170;5.386;2024-01-10T08:11:12;8.35;;;3.50;;
70806;SDS011;58882;52.170;5.386;2024-01-10T08:13:38;9.82;;;3.95;;
70806;SDS011;58882;52.170;5.386;2024-01-10T08:16:06;8.27;;;3.53;;
70806;SDS011;58882;52.170;5.386;2024-01-10T08:18:35;8.60;;;3.78;;
70806;SDS011;58882;52.170;5.386;2024-01-10T08:21:02;9.10;;;3.63;;
70806;SDS011;58882;52.170;5.386;2024-01-10T08:23:30;9.35;;;3.70;;
70806;SDS011;58882;52.170;5.386;2024-01-10T08:25:57;10.02;;;3.70;;
70806;SDS011;58882;52.170;5.386;2024-01-10T08:28:24;9.68;;;3.72;;
70806;SDS011;58882;52.170;5.386;2024-01-10T08:30:52;7.78;;;3.53;;
70806;SDS011;58882;52.170;5.386;2024-01-10T08:33:25;8.95;;;3.83;;
70806;SDS011;58882;52.170;5.386;2024-01-10T08:35:52;10.25;;;4.22;;
70806;SDS011;58882;52.170;5.386;2024-01-10T08:38:20;11.02;;;4.00;;
70806;SDS011;58882;52.170;5.386;2024-01-10T08:40:47;10.02;;;4.32;;
70806;SDS011;58882;52.170;5.386;2024-01-10T08:43:14;9.63;;;3.92;;
70806;SDS011;58882;52.170;5.386;2024-01-10T08:45:41;10.57;;;4.03;;
70806;SDS011;58882;52.170;5.386;2024-01-10T08:48:07;10.75;;;3.85;;
70806;SDS011;58882;52.170;5.386;2024-01-10T08:50:36;9.55;;;3.85;;
70806;SDS011;58882;52.170;5.386;2024-01-10T08:53:03;9.55;;;3.90;;
70806;SDS011;58882;52.170;5.386;2024-01-10T08:55:31;9.38;;;3.63;;
70806;SDS011;58882;52.170;5.386;2024-01-10T08:58:00;8.77;;;3.40;;
70806;SDS011;58882;52.170;5.386;2024-01-10T09:00:27;9.13;;;4.10;;
70806;SDS011;58882;52.170;5.386;2024-01-10T09:02:56;9.68;;;4.07;;
70806;SDS011;58882;52.170;5.386;2024-01-10T09:05:23;10.88;;;4.22;;
70806;SDS011;58882;52.170;5.386;2024-01-10T09:07:50;8.43;;;3.65;;
70806;SDS011;58882;52.170;5.386;2024-01-10T09:10:18;9.68;;;4.03;;
70806;SDS011;58882;52.170;5.386;2024-01-10T09:12:45;9.52;;;4.07;;
70806;SDS011;58882;52.170;5.386;2024-01-10T09:15:13;8.32;;;3.65;;
70806;SDS011;58882;52.170;5.386;2024-01-10T09:17:41;9.25;;;3.97;;
70806;SDS011;58882;52.170;5.386;2024-01-10T09:20:09;9.68;;;3.65;;
70806;SDS011;58882;52.170;5.386;2024-01-10T09:22:39;11.57;;;4.40;;
70806;SDS011;58882;52.170;5.386;2024-01-10T09:25:07;10.77;;;4.03;;
70806;SDS011;58882;52.170;5.386;2024-01-10T09:27:35;9.40;;;3.92;;
70806;SDS011;58882;52.170;5.386;2024-01-10T09:30:02;9.40;;;3.92;;
70806;SDS011;58882;52.170;5.386;2024-01-10T09:32:30;8.80;;;3.70;;
70806;SDS011;58882;52.170;5.386;2024-01-10T09:34:57;8.13;;;3.60;;
70806;SDS011;58882;52.170;5.386;2024-01-10T09:37:24;8.90;;;4.07;;
70806;SDS011;58882;52.170;5.386;2024-01-10T09:39:51;9.45;;;4.10;;
70806;SDS011;58882;52.170;5.386;2024-01-10T09:42:19;9.40;;;3.90;;
70806;SDS011;58882;52.170;5.386;2024-01-10T09:44:52;7.80;;;3.83;;
70806;SDS011;58882;52.170;5.386;2024-01-10T09:47:19;9.02;;;4.13;;
70806;SDS011;58882;52.170;5.386;2024-01-10T09:49:47;8.82;;;4.07;;
70806;SDS011;58882;52.170;5.386;2024-01-10T09:52:26;10.20;;;4.65;;
70806;SDS011;58882;52.170;5.386;2024-01-10T09:54:55;9.13;;;4.30;;
70806;SDS011;58882;52.170;5.386;2024-01-10T09:57:23;9.05;;;4.40;;
70806;SDS011;58882;52.170;5.386;2024-01-10T09:59:52;8.07;;;3.95;;
70806;SDS011;58882;52.170;5.386;2024-01-10T10:02:20;8.93;;;3.90;;
70806;SDS011;58882;52.170;5.386;2024-01-10T10:04:54;9.98;;;4.40;;
70806;SDS011;58882;52.170;5.386;2024-01-10T10:07:29;9.98;;;4.57;;
70806;SDS011;58882;52.170;5.386;2024-01-10T10:09:56;9.10;;;3.85;;
70806;SDS011;58882;52.170;5.386;2024-01-10T10:12:26;7.72;;;4.10;;
70806;SDS011;58882;52.170;5.386;2024-01-10T10:15:12;7.60;;;3.70;;
70806;SDS011;58882;52.170;5.386;2024-01-10T10:17:41;14.43;;;3.85;;
70806;SDS011;58882;52.170;5.386;2024-01-10T10:23:10;9.10;;;3.75;;
70806;SDS011;58882;52.170;5.386;2024-01-10T10:25:42;9.45;;;4.10;;
70806;SDS011;58882;52.170;5.386;2024-01-10T10:28:10;8.45;;;3.83;;
70806;SDS011;58882;52.170;5.386;2024-01-10T10:30:54;8.23;;;3.60;;
70806;SDS011;58882;52.170;5.386;2024-01-10T10:33:22;8.32;;;4.05;;
70806;SDS011;58882;52.170;5.386;2024-01-10T10:35:51;9.10;;;3.63;;
70806;SDS011;58882;52.170;5.386;2024-01-10T10:38:21;8.85;;;3.72;;
70806;SDS011;58882;52.170;5.386;2024-01-10T10:40:48;9.15;;;3.58;;
70806;SDS011;58882;52.170;5.386;2024-01-10T10:43:16;10.20;;;4.20;;
70806;SDS011;58882;52.170;5.386;2024-01-10T10:45:47;9.27;;;3.72;;
70806;SDS011;58882;52.170;5.386;2024-01-10T10:48:19;9.63;;;3.83;;
70806;SDS011;58882;52.170;5.386;2024-01-10T10:51:10;9.38;;;4.28;;
70806;SDS011;58882;52.170;5.386;2024-01-10T10:53:42;8.93;;;4.22;;
70806;SDS011;58882;52.170;5.386;2024-01-10T10:56:13;11.05;;;4.85;;
70806;SDS011;58882;52.170;5.386;2024-01-10T10:58:41;9.20;;;4.45;;
70806;SDS011;58882;52.170;5.386;2024-01-10T11:01:13;10.10;;;4.70;;
70806;SDS011;58882;52.170;5.386;2024-01-10T11:03:41;10.43;;;4.90;;
70806;SDS011;58882;52.170;5.386;2024-01-10T11:06:11;10.05;;;4.22;;
70806;SDS011;58882;52.170;5.386;2024-01-10T11:08:39;11.80;;;4.97;;
70806;SDS011;58882;52.170;5.386;2024-01-10T11:14:06;11.48;;;4.90;;
70806;SDS011;58882;52.170;5.386;2024-01-10T11:19:36;10.27;;;4.38;;
70806;SDS011;58882;52.170;5.386;2024-01-10T11:25:10;10.15;;;4.55;;
70806;SDS011;58882;52.170;5.386;2024-01-10T11:27:37;8.90;;;4.28;;
70806;SDS011;58882;52.170;5.386;2024-01-10T11:30:04;9.90;;;4.60;;
70806;SDS011;58882;52.170;5.386;2024-01-10T11:32:32;10.18;;;4.68;;
70806;SDS011;58882;52.170;5.386;2024-01-10T11:35:11;10.68;;;5.00;;
70806;SDS011;58882;52.170;5.386;2024-01-10T11:37:45;9.45;;;4.85;;
70806;SDS011;58882;52.170;5.386;2024-01-10T11:40:16;11.43;;;4.65;;
70806;SDS011;58882;52.170;5.386;2024-01-10T11:43:12;10.27;;;4.35;;
70806;SDS011;58882;52.170;5.386;2024-01-10T11:45:49;10.50;;;4.65;;
70806;SDS011;58882;52.170;5.386;2024-01-10T11:48:29;10.98;;;4.70;;
70806;SDS011;58882;52.170;5.386;2024-01-10T11:50:58;11.27;;;4.55;;
70806;SDS011;58882;52.170;5.386;2024-01-10T11:53:43;9.98;;;4.15;;
70806;SDS011;58882;52.170;5.386;2024-01-10T11:56:13;12.82;;;4.90;;
70806;SDS011;58882;52.170;5.386;2024-01-10T11:59:02;10.98;;;4.60;;
70806;SDS011;58882;52.170;5.386;2024-01-10T12:01:35;9.80;;;4.50;;
70806;SDS011;58882;52.170;5.386;2024-01-10T12:04:03;10.55;;;4.55;;
70806;SDS011;58882;52.170;5.386;2024-01-10T12:06:44;10.52;;;4.70;;
70806;SDS011;58882;52.170;5.386;2024-01-10T12:09:12;11.65;;;4.72;;
70806;SDS011;58882;52.170;5.386;2024-01-10T12:11:40;11.05;;;4.53;;
70806;SDS011;58882;52.170;5.386;2024-01-10T12:14:08;13.38;;;5.03;;
70806;SDS011;58882;52.170;5.386;2024-01-10T12:16:35;10.73;;;4.85;;
70806;SDS011;58882;52.170;5.386;2024-01-10T12:19:02;11.10;;;4.45;;
70806;SDS011;58882;52.170;5.386;2024-01-10T12:21:30;10.88;;;4.72;;
70806;SDS011;58882;52.170;5.386;2024-01-10T12:23:57;11.07;;;4.20;;
70806;SDS011;58882;52.170;5.386;2024-01-10T12:26:23;9.80;;;4.40;;
70806;SDS011;58882;52.170;5.386;2024-01-10T12:28:54;9.70;;;4.70;;
70806;SDS011;58882;52.170;5.386;2024-01-10T12:31:23;12.10;;;4.60;;
70806;SDS011;58882;52.170;5.386;2024-01-10T12:33:51;11.40;;;4.70;;
70806;SDS011;58882;52.170;5.386;2024-01-10T12:36:18;11.90;;;4.30;;
70806;SDS011;58882;52.170;5.386;2024-01-10T12:38:46;10.65;;;4.72;;
70806;SDS011;58882;52.170;5.386;2024-01-10T12:41:16;10.98;;;4.80;;
70806;SDS011;58882;52.170;5.386;2024-01-10T12:43:48;12.48;;;4.68;;
70806;SDS011;58882;52.170;5.386;2024-01-10T12:46:17;11.93;;;4.60;;
70806;SDS011;58882;52.170;5.386;2024-01-10T12:48:44;9.20;;;4.30;;
70806;SDS011;58882;52.170;5.386;2024-01-10T12:51:12;10.80;;;4.50;;
70806;SDS011;58882;52.170;5.386;2024-01-10T12:53:42;11.88;;;5.45;;
70806;SDS011;58882;52.170;5.386;2024-01-10T12:56:10;9.68;;;4.10;;
70806;SDS011;58882;52.170;5.386;2024-01-10T12:58:41;13.48;;;4.90;;
70806;SDS011;58882;52.170;5.386;2024-01-10T13:01:08;10.48;;;4.55;;
70806;SDS011;58882;52.170;5.386;2024-01-10T13:03:36;10.25;;;4.50;;
70806;SDS011;58882;52.170;5.386;2024-01-10T13:06:03;10.35;;;4.82;;
70806;SDS011;58882;52.170;5.386;2024-01-10T13:08:31;9.57;;;4.53;;
70806;SDS011;58882;52.170;5.386;2024-01-10T13:10:58;9.68;;;4.60;;
70806;SDS011;58882;52.170;5.386;2024-01-10T13:13:30;11.80;;;4.80;;
70806;SDS011;58882;52.170;5.386;2024-01-10T13:15:57;11.70;;;4.88;;
70806;SDS011;58882;52.170;5.386;2024-01-10T13:18:24;10.05;;;4.63;;
70806;SDS011;58882;52.170;5.386;2024-01-10T13:20:51;10.95;;;5.00;;
70806;SDS011;58882;52.170;5.386;2024-01-10T13:23:18;9.57;;;4.70;;
70806;SDS011;58882;52.170;5.386;2024-01-10T13:25:45;14.00;;;4.57;;
70806;SDS011;58882;52.170;5.386;2024-01-10T13:28:12;9.95;;;4.60;;
70806;SDS011;58882;52.170;5.386;2024-01-10T13:30:39;10.05;;;4.22;;
70806;SDS011;58882;52.170;5.386;2024-01-10T13:33:12;12.20;;;5.15;;
70806;SDS011;58882;52.170;5.386;2024-01-10T13:35:39;10.30;;;4.55;;
70806;SDS011;58882;52.170;5.386;2024-01-10T13:38:06;11.10;;;5.00;;
70806;SDS011;58882;52.170;5.386;2024-01-10T13:40:34;10.65;;;4.32;;
70806;SDS011;58882;52.170;5.386;2024-01-10T13:43:01;10.45;;;4.78;;
70806;SDS011;58882;52.170;5.386;2024-01-10T13:45:29;9.30;;;4.57;;
70806;SDS011;58882;52.170;5.386;2024-01-10T13:47:56;11.23;;;4.82;;
70806;SDS011;58882;52.170;5.386;2024-01-10T13:50:23;9.52;;;4.55;;
70806;SDS011;58882;52.170;5.386;2024-01-10T13:52:51;12.68;;;4.78;;
70806;SDS011;58882;52.170;5.386;2024-01-10T13:55:20;10.23;;;5.00;;
70806;SDS011;58882;52.170;5.386;2024-01-10T13:57:47;9.98;;;4.80;;
70806;SDS011;58882;52.170;5.386;2024-01-10T14:00:13;10.90;;;4.60;;
70806;SDS011;58882;52.170;5.386;2024-01-10T14:02:43;10.50;;;4.80;;
70806;SDS011;58882;52.170;5.386;2024-01-10T14:05:10;9.98;;;4.57;;
70806;SDS011;58882;52.170;5.386;2024-01-10T14:07:37;9.75;;;4.68;;
70806;SDS011;58882;52.170;5.386;2024-01-10T14:10:04;11.52;;;4.93;;
70806;SDS011;58882;52.170;5.386;2024-01-10T14:12:32;10.63;;;4.55;;
70806;SDS011;58882;52.170;5.386;2024-01-10T14:14:59;10.68;;;4.55;;
70806;SDS011;58882;52.170;5.386;2024-01-10T14:17:28;10.77;;;4.60;;
70806;SDS011;58882;52.170;5.386;2024-01-10T14:19:55;9.95;;;4.53;;
70806;SDS011;58882;52.170;5.386;2024-01-10T14:22:22;10.50;;;4.20;;
70806;SDS011;58882;52.170;5.386;2024-01-10T14:24:57;9.65;;;4.20;;
70806;SDS011;58882;52.170;5.386;2024-01-10T14:27:28;11.38;;;4.68;;
70806;SDS011;58882;52.170;5.386;2024-01-10T14:29:55;10.20;;;4.95;;
70806;SDS011;58882;52.170;5.386;2024-01-10T14:32:22;8.60;;;4.07;;
70806;SDS011;58882;52.170;5.386;2024-01-10T14:34:49;8.60;;;4.15;;
70806;SDS011;58882;52.170;5.386;2024-01-10T14:37:17;11.00;;;4.60;;
70806;SDS011;58882;52.170;5.386;2024-01-10T14:39:43;9.05;;;4.32;;
70806;SDS011;58882;52.170;5.386;2024-01-10T14:42:10;9.85;;;4.57;;
70806;SDS011;58882;52.170;5.386;2024-01-10T14:44:37;11.38;;;4.57;;
70806;SDS011;58882;52.170;5.386;2024-01-10T14:47:04;9.57;;;4.40;;
70806;SDS011;58882;52.170;5.386;2024-01-10T14:49:37;11.18;;;4.70;;
70806;SDS011;58882;52.170;5.386;2024-01-10T14:52:05;10.73;;;4.38;;
70806;SDS011;58882;52.170;5.386;2024-01-10T14:54:32;9.27;;;4.22;;
70806;SDS011;58882;52.170;5.386;2024-01-10T14:56:59;9.25;;;4.25;;
70806;SDS011;58882;52.170;5.386;2024-01-10T14:59:26;10.68;;;4.72;;
70806;SDS011;58882;52.170;5.386;2024-01-10T15:02:09;8.75;;;4.20;;
70806;SDS011;58882;52.170;5.386;2024-01-10T15:04:37;10.98;;;4.40;;